createdAt,value
2018-11-25T00:00:36.617Z,42.17
2018-11-25T00:03:11.283Z,40.13
2018-11-25T00:05:45.802Z,38.93
2018-11-25T00:08:20.281Z,39.97
2018-11-25T00:10:54.845Z,35.50
2018-11-25T00:13:29.414Z,43.53
2018-11-25T00:16:03.931Z,41.77
2018-11-25T00:18:38.626Z,39.47
2018-11-25T00:21:13.213Z,36.00
2018-11-25T00:23:47.751Z,39.60
2018-11-25T00:26:22.395Z,40.33
2018-11-25T00:28:56.950Z,40.57
2018-11-25T00:31:31.691Z,33.40
2018-11-25T00:34:06.070Z,38.77
2018-11-25T00:36:40.743Z,37.93
2018-11-25T00:39:15.372Z,37.93
2018-11-25T00:41:50.531Z,38.63
2018-11-25T00:44:25.472Z,38.67
2018-11-25T00:46:59.990Z,38.70
2018-11-25T00:49:35.716Z,39.93
2018-11-25T00:52:10.499Z,38.23
2018-11-25T00:54:45.608Z,40.73
2018-11-25T00:57:20.535Z,37.40
2018-11-25T00:59:56.469Z,36.10
2018-11-25T01:02:31.881Z,35.53
2018-11-25T01:05:06.839Z,34.67
2018-11-25T01:07:41.741Z,37.37
2018-11-25T01:10:17.342Z,39.73
2018-11-25T01:12:52.256Z,37.93
2018-11-25T01:15:27.931Z,39.17
2018-11-25T01:18:03.041Z,39.90
2018-11-25T01:20:37.495Z,37.13
2018-11-25T01:23:12.300Z,35.23
2018-11-25T01:25:47.125Z,37.20
2018-11-25T01:28:21.708Z,37.23
2018-11-25T01:30:57.025Z,35.63
2018-11-25T01:33:32.654Z,36.43
2018-11-25T01:36:07.683Z,37.30
2018-11-25T01:38:42.356Z,35.47
2018-11-25T01:41:17.262Z,39.60
2018-11-25T01:43:51.938Z,37.70
2018-11-25T01:46:26.499Z,36.97
2018-11-25T01:49:00.997Z,40.03
2018-11-25T01:51:35.623Z,37.20
2018-11-25T01:54:10.133Z,41.33
2018-11-25T01:56:45.139Z,36.17
2018-11-25T01:59:19.712Z,36.83
2018-11-25T02:01:54.365Z,35.90
2018-11-25T02:04:28.979Z,35.30
2018-11-25T02:07:03.916Z,36.50
2018-11-25T02:09:38.824Z,35.10
2018-11-25T02:12:14.260Z,35.73
2018-11-25T02:14:48.905Z,36.63
2018-11-25T02:17:23.674Z,35.00
2018-11-25T02:19:58.342Z,34.80
2018-11-25T02:22:32.834Z,35.83
2018-11-25T02:25:07.527Z,33.43
2018-11-25T02:27:42.024Z,34.90
2018-11-25T02:30:17.559Z,33.30
2018-11-25T02:32:51.959Z,32.87
2018-11-25T02:35:26.562Z,34.60
2018-11-25T02:38:01.142Z,33.00
2018-11-25T02:40:36.151Z,33.00
2018-11-25T02:43:10.762Z,34.27
2018-11-25T02:45:45.523Z,32.57
2018-11-25T02:48:20.271Z,32.73
2018-11-25T02:50:55.123Z,33.87
2018-11-25T02:53:29.692Z,36.53
2018-11-25T02:56:04.677Z,29.87
2018-11-25T02:58:39.329Z,34.53
2018-11-25T03:01:14.931Z,32.47
2018-11-25T03:03:49.566Z,33.30
2018-11-25T03:06:24.151Z,31.80
2018-11-25T03:08:58.864Z,34.77
2018-11-25T03:11:33.366Z,31.27
2018-11-25T03:14:07.967Z,33.90
2018-11-25T03:16:42.546Z,32.10
2018-11-25T03:19:17.161Z,29.63
2018-11-25T03:21:52.104Z,31.00
2018-11-25T03:24:26.959Z,28.00
2018-11-25T03:27:01.649Z,32.40
2018-11-25T03:29:36.443Z,32.03
2018-11-25T03:32:11.986Z,27.03
2018-11-25T03:34:46.547Z,27.50
2018-11-25T03:37:21.172Z,29.77
2018-11-25T03:39:55.879Z,28.53
2018-11-25T03:42:30.752Z,28.83
2018-11-25T03:45:08.123Z,30.30
2018-11-25T03:47:42.506Z,25.67
2018-11-25T03:50:17.788Z,25.90
2018-11-25T03:52:52.451Z,25.30
2018-11-25T03:55:27.156Z,26.70
2018-11-25T03:58:02.689Z,27.00
2018-11-25T04:00:37.402Z,25.07
2018-11-25T04:03:12.131Z,24.10
2018-11-25T04:05:46.923Z,26.93
2018-11-25T04:08:21.515Z,27.77
2018-11-25T04:10:56.275Z,29.70
2018-11-25T04:13:30.918Z,28.17
2018-11-25T04:16:05.596Z,27.10
2018-11-25T04:18:40.162Z,27.27
2018-11-25T04:21:15.925Z,25.33
2018-11-25T04:23:50.433Z,25.77
2018-11-25T04:26:24.975Z,24.70
2018-11-25T04:28:59.640Z,24.17
2018-11-25T04:31:34.467Z,24.00
2018-11-25T04:34:09.119Z,25.40
2018-11-25T04:36:43.582Z,27.77
2018-11-25T04:39:18.358Z,26.07
2018-11-25T04:41:53.179Z,25.07
2018-11-25T04:44:27.925Z,25.87
2018-11-25T04:47:02.816Z,27.17
2018-11-25T04:49:37.926Z,24.60
2018-11-25T04:52:12.733Z,24.43
2018-11-25T04:54:47.646Z,23.90
2018-11-25T04:57:22.375Z,25.80
2018-11-25T04:59:57.035Z,26.70
2018-11-25T05:02:32.537Z,22.73
2018-11-25T05:05:10.429Z,22.03
2018-11-25T05:07:45.162Z,23.70
2018-11-25T05:10:19.750Z,23.80
2018-11-25T05:12:54.280Z,23.93
2018-11-25T05:15:28.975Z,23.27
2018-11-25T05:18:03.439Z,23.70
2018-11-25T05:20:38.404Z,24.50
2018-11-25T05:23:13.393Z,23.10
2018-11-25T05:25:48.123Z,21.70
2018-11-25T05:28:22.758Z,22.13
2018-11-25T05:30:57.355Z,22.57
2018-11-25T05:33:32.312Z,22.90
2018-11-25T05:36:06.878Z,20.57
2018-11-25T05:38:41.398Z,22.10
2018-11-25T05:41:16.135Z,21.70
2018-11-25T05:43:50.917Z,22.60
2018-11-25T05:46:25.812Z,19.77
2018-11-25T05:49:00.584Z,23.20
2018-11-25T05:51:35.304Z,22.77
2018-11-25T05:54:09.891Z,22.97
2018-11-25T05:56:44.291Z,23.70
2018-11-25T05:59:18.983Z,24.30
2018-11-25T06:01:53.924Z,24.07
2018-11-25T06:04:28.610Z,21.40
2018-11-25T06:07:03.272Z,20.33
2018-11-25T06:09:38.176Z,23.07
2018-11-25T06:12:13.035Z,24.40
2018-11-25T06:14:47.954Z,22.67
2018-11-25T06:17:22.903Z,21.47
2018-11-25T06:19:57.555Z,20.80
2018-11-25T06:22:32.263Z,21.47
2018-11-25T06:25:08.883Z,22.10
2018-11-25T06:27:43.657Z,21.50
2018-11-25T06:30:19.347Z,22.43
2018-11-25T06:32:53.959Z,20.50
2018-11-25T06:35:28.602Z,21.37
2018-11-25T06:38:03.622Z,22.50
2018-11-25T06:40:38.114Z,23.47
2018-11-25T06:43:12.707Z,22.27
2018-11-25T06:45:47.329Z,21.03
2018-11-25T06:48:21.826Z,24.30
2018-11-25T06:50:56.700Z,23.60
2018-11-25T06:53:31.479Z,23.00
2018-11-25T06:56:06.331Z,22.40
2018-11-25T06:58:41.266Z,22.80
2018-11-25T07:01:15.806Z,19.80
2018-11-25T07:03:50.274Z,24.40
2018-11-25T07:06:24.858Z,22.53
2018-11-25T07:09:00.807Z,22.93
2018-11-25T07:11:35.426Z,20.17
2018-11-25T07:14:09.997Z,21.30
2018-11-25T07:16:44.611Z,21.97
2018-11-25T07:19:20.121Z,22.30
2018-11-25T07:21:54.706Z,20.50
2018-11-25T07:24:29.727Z,21.43
2018-11-25T07:27:04.686Z,21.27
2018-11-25T07:29:39.487Z,19.53
2018-11-25T07:32:14.312Z,21.43
2018-11-25T07:34:50.672Z,20.90
2018-11-25T07:37:25.295Z,22.07
2018-11-25T07:39:59.987Z,21.70
2018-11-25T07:42:35.613Z,23.70
2018-11-25T07:45:12.612Z,20.73
2018-11-25T07:47:47.707Z,21.17
2018-11-25T07:50:22.247Z,19.63
2018-11-25T07:52:57.619Z,20.63
2018-11-25T07:55:32.198Z,20.83
2018-11-25T07:58:06.912Z,21.23
2018-11-25T08:00:41.979Z,19.13
2018-11-25T08:03:17.079Z,18.40
2018-11-25T08:05:51.783Z,21.00
2018-11-25T08:08:26.377Z,19.60
2018-11-25T08:11:01.142Z,21.67
2018-11-25T08:13:35.864Z,20.53
2018-11-25T08:16:10.651Z,19.67
2018-11-25T08:18:45.235Z,22.80
2018-11-25T08:21:20.128Z,21.97
2018-11-25T08:23:55.601Z,19.90
2018-11-25T08:26:30.450Z,22.80
2018-11-25T08:29:05.091Z,20.07
2018-11-25T08:31:40.671Z,21.10
2018-11-25T08:34:16.104Z,22.33
2018-11-25T08:36:51.022Z,21.77
2018-11-25T08:39:25.796Z,20.30
2018-11-25T08:42:01.401Z,22.03
2018-11-25T08:44:38.037Z,21.87
2018-11-25T08:47:12.469Z,20.87
2018-11-25T08:49:47.116Z,21.53
2018-11-25T08:52:22.635Z,20.77
2018-11-25T08:54:57.740Z,20.80
2018-11-25T08:57:32.371Z,22.20
2018-11-25T09:00:17.267Z,21.60
2018-11-25T09:02:53.202Z,21.80
2018-11-25T09:05:27.700Z,20.73
2018-11-25T09:08:02.411Z,20.13
2018-11-25T09:10:37.666Z,21.30
2018-11-25T09:13:12.957Z,20.80
2018-11-25T09:15:47.437Z,22.10
2018-11-25T09:18:22.094Z,21.87
2018-11-25T09:20:56.582Z,22.80
2018-11-25T09:23:31.050Z,23.03
2018-11-25T09:26:05.975Z,22.40
2018-11-25T09:28:43.057Z,21.63
2018-11-25T09:31:17.799Z,24.07
2018-11-25T09:33:52.449Z,23.53
2018-11-25T09:36:27.448Z,22.90
2018-11-25T09:39:02.087Z,21.57
2018-11-25T09:41:36.962Z,22.07
2018-11-25T09:44:18.293Z,23.40
2018-11-25T09:46:53.828Z,23.00
2018-11-25T09:49:28.432Z,22.33
2018-11-25T09:52:03.505Z,22.77
2018-11-25T09:54:37.963Z,24.17
2018-11-25T09:57:12.578Z,23.17
2018-11-25T09:59:47.344Z,22.33
2018-11-25T10:02:24.251Z,22.63
2018-11-25T10:04:59.258Z,23.93
2018-11-25T10:07:34.299Z,22.20
2018-11-25T10:10:13.319Z,25.07
2018-11-25T10:12:48.139Z,23.63
2018-11-25T10:15:24.056Z,24.27
2018-11-25T10:18:00.062Z,23.87
2018-11-25T10:20:33.989Z,21.63
2018-11-25T10:23:08.755Z,25.20
2018-11-25T10:25:43.437Z,24.80
2018-11-25T10:28:18.124Z,24.50
2018-11-25T10:30:52.591Z,26.77
2018-11-25T10:33:27.801Z,27.40
2018-11-25T10:36:04.591Z,26.13
2018-11-25T10:38:38.207Z,24.00
2018-11-25T10:41:12.745Z,28.13
2018-11-25T10:43:48.164Z,25.60
2018-11-25T10:46:23.664Z,27.33
2018-11-25T10:48:58.443Z,27.90
2018-11-25T10:51:33.210Z,26.27
2018-11-25T10:54:08.634Z,26.13
2018-11-25T10:56:43.533Z,27.37
2018-11-25T10:59:18.395Z,30.20
2018-11-25T11:01:58.743Z,29.40
2018-11-25T11:04:38.877Z,30.57
2018-11-25T11:07:18.937Z,27.87
2018-11-25T11:09:55.420Z,29.60
2018-11-25T11:12:30.823Z,29.43
2018-11-25T11:17:52.406Z,31.90
2018-11-25T11:20:27.791Z,32.33
2018-11-25T11:23:03.743Z,31.40
2018-11-25T11:25:39.523Z,34.60
2018-11-25T11:28:15.760Z,32.27
2018-11-25T11:30:50.558Z,34.47
2018-11-25T11:33:25.920Z,34.90
2018-11-25T11:36:00.818Z,32.43
2018-11-25T11:38:37.623Z,31.57
2018-11-25T11:41:12.483Z,34.70
2018-11-25T11:43:47.963Z,35.80
2018-11-25T11:46:22.938Z,35.73
2018-11-25T11:48:57.962Z,34.83
2018-11-25T11:51:32.831Z,34.47
2018-11-25T11:54:13.375Z,35.07
2018-11-25T11:56:48.352Z,36.20
2018-11-25T11:59:23.480Z,34.67
2018-11-25T12:01:59.664Z,36.47
2018-11-25T12:04:35.390Z,35.87
2018-11-25T12:07:11.281Z,38.70
2018-11-25T12:09:47.176Z,37.03
2018-11-25T12:12:22.036Z,36.57
2018-11-25T12:15:03.520Z,36.20
2018-11-25T12:17:39.430Z,38.07
2018-11-25T12:20:21.225Z,38.13
2018-11-25T12:22:53.660Z,35.30
2018-11-25T12:25:28.703Z,35.03
2018-11-25T12:28:04.727Z,36.30
2018-11-25T12:30:41.909Z,33.23
2018-11-25T12:33:17.409Z,35.13
2018-11-25T12:35:52.852Z,35.53
2018-11-25T12:38:29.065Z,39.97
2018-11-25T12:41:03.887Z,38.60
2018-11-25T12:43:39.574Z,35.90
2018-11-25T12:46:14.455Z,36.53
2018-11-25T12:48:50.665Z,34.37
2018-11-25T12:51:28.472Z,37.80
2018-11-25T12:54:04.072Z,36.53
2018-11-25T12:56:51.631Z,36.40
2018-11-25T12:59:21.260Z,40.50
2018-11-25T13:01:56.110Z,36.93
2018-11-25T13:04:31.042Z,38.50
2018-11-25T13:07:06.371Z,35.70
2018-11-25T13:09:41.246Z,37.97
2018-11-25T13:12:16.393Z,38.90
2018-11-25T13:14:52.100Z,37.23
2018-11-25T13:17:26.908Z,39.67
2018-11-25T13:20:03.763Z,37.83
2018-11-25T13:22:40.458Z,38.90
2018-11-25T13:25:16.257Z,36.70
2018-11-25T13:27:51.731Z,37.70
2018-11-25T13:30:29.230Z,40.00
2018-11-25T13:33:04.311Z,42.40
2018-11-25T13:35:39.600Z,39.57
2018-11-25T13:38:14.932Z,37.17
2018-11-25T13:40:50.411Z,38.43
2018-11-25T13:43:26.691Z,39.73
2018-11-25T13:46:01.634Z,43.80
2018-11-25T13:48:36.620Z,42.37
2018-11-25T13:51:11.622Z,41.90
2018-11-25T13:53:46.687Z,33.87
2018-11-25T13:56:21.917Z,40.27
2018-11-25T13:58:57.386Z,39.07
2018-11-25T14:01:32.419Z,37.87
2018-11-25T14:04:07.477Z,38.50
2018-11-25T14:06:43.000Z,43.60
2018-11-25T14:09:18.239Z,42.07
2018-11-25T14:11:53.362Z,39.47
2018-11-25T14:14:28.006Z,37.77
2018-11-25T14:17:02.720Z,40.00
2018-11-25T14:19:37.515Z,45.43
2018-11-25T14:22:12.230Z,40.23
2018-11-25T14:24:47.699Z,40.50
2018-11-25T14:27:22.232Z,43.73
2018-11-25T14:29:58.661Z,39.60
2018-11-25T14:32:33.450Z,44.63
2018-11-25T14:35:12.074Z,40.67
2018-11-25T14:37:47.787Z,38.80
2018-11-25T14:40:29.077Z,38.50
2018-11-25T14:43:06.501Z,38.30
2018-11-25T14:45:41.243Z,39.83
2018-11-25T14:48:16.236Z,39.57
2018-11-25T14:50:51.007Z,40.50
2018-11-25T14:53:25.723Z,45.77
2018-11-25T14:56:00.409Z,43.87
2018-11-25T14:58:35.045Z,40.13
2018-11-25T15:03:53.161Z,41.90
2018-11-25T15:06:29.338Z,37.63
2018-11-25T15:09:02.638Z,39.70
2018-11-25T15:11:38.667Z,39.53
2018-11-25T15:14:13.227Z,40.03
2018-11-25T15:16:50.321Z,40.43
2018-11-25T15:19:25.249Z,41.53
2018-11-25T15:22:00.144Z,43.63
2018-11-25T15:24:34.691Z,40.37
2018-11-25T15:27:09.943Z,40.40
2018-11-25T15:29:44.655Z,34.47
2018-11-25T15:32:20.159Z,34.10
2018-11-25T15:34:54.804Z,39.07
2018-11-25T15:37:29.710Z,36.03
2018-11-25T15:40:04.924Z,36.37
2018-11-25T15:42:39.828Z,40.80
2018-11-25T15:45:14.482Z,42.90
2018-11-25T15:47:52.343Z,42.27
2018-11-25T15:50:31.466Z,44.53
2018-11-25T15:53:11.520Z,44.60
2018-11-25T15:55:47.809Z,42.37
2018-11-25T15:58:22.262Z,43.37
2018-11-25T16:00:56.997Z,43.83
2018-11-25T16:03:31.451Z,42.73
2018-11-25T16:06:15.648Z,43.13
2018-11-25T16:08:50.163Z,42.17
2018-11-25T16:11:24.619Z,46.00
2018-11-25T16:14:00.105Z,50.53
2018-11-25T16:16:34.656Z,49.73
2018-11-25T16:19:09.369Z,50.63
2018-11-25T16:21:43.974Z,48.77
2018-11-25T16:24:18.577Z,42.47
2018-11-25T16:26:53.111Z,46.00
2018-11-25T16:29:28.239Z,46.10
2018-11-25T16:32:03.556Z,43.90
2018-11-25T16:34:38.499Z,44.97
2018-11-25T16:37:13.154Z,43.47
2018-11-25T16:39:48.929Z,46.10
2018-11-25T16:42:23.452Z,46.33
2018-11-25T16:44:58.108Z,50.03
2018-11-25T16:47:32.703Z,48.43
2018-11-25T16:50:09.274Z,46.67
2018-11-25T16:52:44.942Z,46.70
2018-11-25T16:55:19.784Z,45.63
2018-11-25T16:57:54.315Z,49.73
2018-11-25T17:00:28.929Z,48.70
2018-11-25T17:03:03.495Z,48.10
2018-11-25T17:05:41.179Z,48.30
2018-11-25T17:08:29.096Z,53.00
2018-11-25T17:11:03.663Z,53.07
2018-11-25T17:13:38.578Z,56.03
2018-11-25T17:16:13.388Z,50.73
2018-11-25T17:18:48.331Z,50.37
2018-11-25T17:21:22.879Z,50.30
2018-11-25T17:23:57.636Z,48.47
2018-11-25T17:26:32.233Z,44.40
2018-11-25T17:29:06.795Z,44.40
2018-11-25T17:31:41.312Z,46.00
2018-11-25T17:34:15.923Z,48.93
2018-11-25T17:36:50.542Z,47.77
2018-11-25T17:39:25.891Z,46.27
2018-11-25T17:42:01.625Z,37.70
2018-11-25T17:44:36.326Z,40.90
2018-11-25T17:47:11.118Z,38.60
2018-11-25T17:49:45.901Z,43.27
2018-11-25T17:52:20.687Z,43.20
2018-11-25T17:54:55.363Z,40.23
2018-11-25T17:57:29.992Z,43.03
2018-11-25T18:00:09.690Z,45.97
2018-11-25T18:02:44.146Z,38.10
2018-11-25T18:05:18.666Z,41.43
2018-11-25T18:07:53.200Z,42.53
2018-11-25T18:10:27.859Z,40.97
2018-11-25T18:13:02.455Z,41.50
2018-11-25T18:15:37.068Z,47.40
2018-11-25T18:18:15.483Z,44.30
2018-11-25T18:20:55.186Z,43.93
2018-11-25T18:23:29.671Z,40.20
2018-11-25T18:26:04.190Z,40.87
2018-11-25T18:28:38.785Z,43.30
2018-11-25T18:31:15.785Z,42.43
2018-11-25T18:33:50.339Z,46.70
2018-11-25T18:36:25.065Z,42.43
2018-11-25T18:38:59.573Z,46.40
2018-11-25T18:41:34.370Z,49.03
2018-11-25T18:44:09.007Z,46.00
2018-11-25T18:46:46.952Z,46.87
2018-11-25T18:49:18.246Z,43.00
2018-11-25T18:51:54.340Z,45.03
2018-11-25T18:54:28.892Z,42.43
2018-11-25T18:57:04.349Z,47.17
2018-11-25T18:59:40.062Z,43.33
2018-11-25T19:02:21.109Z,41.10
2018-11-25T19:04:58.096Z,44.80
2018-11-25T19:07:32.885Z,41.10
2018-11-25T19:10:13.965Z,41.53
2018-11-25T19:12:48.917Z,42.37
2018-11-25T19:15:23.712Z,47.87
2018-11-25T19:17:58.463Z,37.30
2018-11-25T19:20:33.135Z,37.10
2018-11-25T19:25:48.544Z,39.17
2018-11-25T19:28:25.113Z,42.80
2018-11-25T19:30:59.837Z,36.90
2018-11-25T19:33:34.989Z,41.07
2018-11-25T19:36:10.069Z,43.67
2018-11-25T19:38:45.467Z,41.27
2018-11-25T19:41:20.384Z,42.87
2018-11-25T19:43:55.246Z,45.07
2018-11-25T19:46:29.846Z,42.50
2018-11-25T19:49:04.710Z,44.30
2018-11-25T19:54:23.404Z,42.70
2018-11-25T19:56:57.852Z,44.37
2018-11-25T19:59:32.442Z,34.67
2018-11-25T20:02:07.070Z,39.77
2018-11-25T20:04:41.916Z,44.07
2018-11-25T20:07:17.535Z,44.10
2018-11-25T20:09:52.070Z,41.63
2018-11-25T20:12:32.166Z,44.27
2018-11-25T20:15:07.759Z,41.10
2018-11-25T20:17:43.211Z,43.43
2018-11-25T20:20:21.463Z,41.97
2018-11-25T20:22:57.021Z,44.37
2018-11-25T20:25:31.860Z,43.80
2018-11-25T20:28:06.616Z,45.10
2018-11-25T20:30:41.333Z,43.77
2018-11-25T20:33:21.199Z,47.80
2018-11-25T20:35:56.213Z,43.83
2018-11-25T20:38:36.427Z,39.50
2018-11-25T20:41:11.503Z,50.07
2018-11-25T20:43:46.385Z,44.00
2018-11-25T20:46:26.485Z,49.67
2018-11-25T20:49:01.410Z,43.80
2018-11-25T20:51:41.577Z,38.93
2018-11-25T20:54:20.510Z,44.03
2018-11-25T20:56:56.020Z,46.40
2018-11-25T20:59:30.835Z,45.57
2018-11-25T21:02:06.477Z,39.20
2018-11-25T21:04:41.384Z,39.60
2018-11-25T21:07:16.425Z,45.50
2018-11-25T21:09:51.390Z,47.13
2018-11-25T21:12:26.300Z,44.17
2018-11-25T21:15:01.228Z,42.70
2018-11-25T21:17:35.932Z,45.53
2018-11-25T21:20:12.965Z,45.40
2018-11-25T21:22:47.783Z,43.60
2018-11-25T21:25:23.540Z,46.57
2018-11-25T21:27:58.176Z,44.13
2018-11-25T21:30:32.628Z,40.37
2018-11-25T21:33:07.199Z,49.80
2018-11-25T21:35:41.994Z,45.80
2018-11-25T21:38:16.749Z,47.53
2018-11-25T21:40:51.403Z,47.80
2018-11-25T21:43:26.193Z,48.67
2018-11-25T21:46:00.872Z,47.20
2018-11-25T21:48:35.871Z,43.43
2018-11-25T21:51:10.414Z,44.80
2018-11-25T21:53:44.979Z,38.80
2018-11-25T21:56:19.567Z,44.33
2018-11-25T21:58:54.154Z,46.47
2018-11-25T22:01:28.653Z,40.83
2018-11-25T22:04:03.563Z,46.23
2018-11-25T22:06:38.266Z,47.50
2018-11-25T22:09:13.101Z,46.93
2018-11-25T22:11:47.869Z,43.40
2018-11-25T22:14:22.397Z,42.73
2018-11-25T22:16:56.955Z,47.80
2018-11-25T22:19:31.707Z,48.50
2018-11-25T22:22:06.579Z,47.60
2018-11-25T22:24:41.194Z,48.60
2018-11-25T22:27:16.534Z,42.70
2018-11-25T22:29:51.333Z,44.87
2018-11-25T22:32:26.040Z,46.63
2018-11-25T22:35:00.783Z,49.40
2018-11-25T22:37:35.458Z,47.77
2018-11-25T22:40:11.365Z,43.63
2018-11-25T22:42:47.133Z,50.00
2018-11-25T22:45:23.275Z,47.63
2018-11-25T22:47:57.955Z,48.67
2018-11-25T22:50:34.053Z,46.53
2018-11-25T22:53:08.971Z,48.80
2018-11-25T22:55:43.768Z,43.60
2018-11-25T22:58:18.358Z,42.53
2018-11-25T23:00:53.463Z,48.40
2018-11-25T23:03:27.956Z,38.40
2018-11-25T23:06:15.410Z,42.97
2018-11-25T23:08:49.997Z,38.20
2018-11-25T23:11:24.542Z,47.77
2018-11-25T23:13:59.195Z,47.40
2018-11-25T23:16:33.755Z,48.20
2018-11-25T23:19:08.282Z,48.10
2018-11-25T23:21:43.079Z,49.47
2018-11-25T23:24:18.655Z,46.10
2018-11-25T23:26:53.524Z,46.70
2018-11-25T23:29:28.391Z,45.60
2018-11-25T23:32:03.188Z,45.00
2018-11-25T23:34:37.967Z,47.47
2018-11-25T23:37:13.136Z,45.07
2018-11-25T23:39:47.961Z,48.43
2018-11-25T23:42:22.883Z,42.87
2018-11-25T23:44:59.703Z,40.97
2018-11-25T23:47:34.338Z,46.70
2018-11-25T23:50:10.087Z,44.10
2018-11-25T23:52:46.296Z,47.20
2018-11-25T23:55:21.279Z,35.33
2018-11-25T23:57:56.244Z,46.33
